Lyttleville, Illinois
Current Conditions -  °F | °C
As of 6:56 AM on Saturday 25 Oct 2014 (Local Time) from KBMI Reporting Station
Haze Haze  
Wind Chill: 53°   Ceiling: Unl
Heat Index: 53°   Visibility: 6mi
Dew Point: 52°   Wind: 3mph
Humidity: 97%   Direction: 250°WSW
Pressure: 29.98"   Gusts: NA
Location:  40.3419°N, 88.9792°W
Report Text: KBMI 251156Z 25003KT 6SM BR CLR 12/11 A2998 RMK AO2 51012 T01160111 10155 20111 SLP155
Loading
Personal Weather Stations






























Interactive Weather Map
Tropical Storm Tracking
New forecast layout! Learn more

10-Day Weather Forecast

Advertisements
Track Severe Weather on mobile